Time;durP1;ratioP1;P1;durP2;ratioP2;P2;SDS_P1;SDS_P2;PMS_P1;PMS_P2;Temp;Humidity;BMP_temperature;BMP_pressure;BME280_temperature;BME280_humidity;BME280_pressure;Samples;Min_cycle;Max_cycle;Signal;HPM_P1;HPM_P2
2024/04/04 00:01:53;;;;;;;9.43;4.20;;;12.70;92.70;;;;;;5036724;28;20238;-60
2024/04/04 00:04:19;;;;;;;10.03;4.90;;;12.70;92.70;;;;;;5033933;28;20253;-60
2024/04/04 00:06:46;;;;;;;6.10;4.30;;;12.80;92.70;;;;;;5028688;28;20202;-60
2024/04/04 00:09:14;;;;;;;9.53;5.47;;;12.70;92.60;;;;;;5026972;28;20200;-60
2024/04/04 00:11:40;;;;;;;11.67;4.73;;;12.70;92.60;;;;;;5006276;28;20226;-60
2024/04/04 00:14:07;;;;;;;6.20;4.73;;;12.80;92.60;;;;;;5041665;28;20226;-60
2024/04/04 00:16:37;;;;;;;7.87;4.80;;;12.80;92.50;;;;;;5037443;28;20225;-60
2024/04/04 00:19:04;;;;;;;10.17;5.00;;;12.80;92.50;;;;;;4999716;28;20206;-60
2024/04/04 00:21:30;;;;;;;8.03;4.63;;;12.80;92.50;;;;;;5036200;28;20288;-59
2024/04/04 00:24:00;;;;;;;7.83;5.10;;;12.80;92.50;;;;;;5034149;28;20214;-60
2024/04/04 00:26:26;;;;;;;6.63;5.30;;;12.80;92.40;;;;;;5036556;28;20240;-60
2024/04/04 00:28:52;;;;;;;9.10;5.90;;;12.70;92.30;;;;;;5029397;28;20246;-59
2024/04/04 00:31:19;;;;;;;8.70;5.13;;;12.70;92.30;;;;;;5019538;28;20533;-59
2024/04/04 00:33:46;;;;;;;6.20;5.23;;;12.60;92.30;;;;;;5020366;28;20207;-58
2024/04/04 00:36:13;;;;;;;10.23;5.37;;;12.50;92.40;;;;;;5017347;28;20646;-59
2024/04/04 00:38:39;;;;;;;8.17;5.20;;;12.50;92.50;;;;;;5039829;28;20232;-59
2024/04/04 00:41:05;;;;;;;10.27;5.57;;;12.50;92.60;;;;;;5035111;28;20207;-59
2024/04/04 00:43:31;;;;;;;13.30;5.80;;;12.40;92.60;;;;;;5006748;28;20224;-59
2024/04/04 00:45:57;;;;;;;10.27;5.80;;;12.40;92.60;;;;;;5037802;28;20195;-59
2024/04/04 00:48:24;;;;;;;9.17;5.73;;;12.30;92.60;;;;;;5036836;28;20206;-59
2024/04/04 00:50:54;;;;;;;10.17;5.50;;;12.20;92.60;;;;;;5039215;28;20275;-59
2024/04/04 00:53:23;;;;;;;7.47;5.30;;;12.10;92.70;;;;;;5036445;28;20248;-59
2024/04/04 00:55:49;;;;;;;11.13;6.07;;;12.10;92.80;;;;;;5034847;28;20227;-58
2024/04/04 00:58:19;;;;;;;10.83;6.60;;;12.00;92.90;;;;;;5020197;28;20206;-58
2024/04/04 01:00:46;;;;;;;8.13;5.57;;;12.00;93.10;;;;;;5014443;28;20233;-59
2024/04/04 01:03:14;;;;;;;7.47;5.87;;;11.90;93.20;;;;;;5000418;28;20215;-59
2024/04/04 01:05:40;;;;;;;9.40;6.17;;;11.90;93.20;;;;;;5022068;28;20199;-59
2024/04/04 01:08:08;;;;;;;9.93;6.47;;;11.90;93.30;;;;;;5029550;28;20205;-59
2024/04/04 01:10:34;;;;;;;10.50;7.13;;;11.90;93.30;;;;;;5039556;28;20219;-59
2024/04/04 01:13:01;;;;;;;11.13;6.00;;;11.90;93.40;;;;;;5018609;28;20273;-59
2024/04/04 01:15:28;;;;;;;7.57;6.37;;;11.90;93.40;;;;;;5000377;28;20218;-59
2024/04/04 01:17:58;;;;;;;9.87;6.50;;;11.90;93.40;;;;;;4995893;28;20587;-61
2024/04/04 01:20:28;;;;;;;9.63;6.07;;;11.80;93.40;;;;;;5019383;28;20206;-59
2024/04/04 01:22:55;;;;;;;12.60;6.77;;;11.70;93.50;;;;;;5031571;28;20219;-59
2024/04/04 01:25:21;;;;;;;13.67;7.50;;;11.70;93.60;;;;;;5031263;28;20692;-59
2024/04/04 01:27:49;;;;;;;9.63;6.33;;;11.70;93.70;;;;;;5037493;28;20705;-59
2024/04/04 01:30:16;;;;;;;8.93;6.47;;;11.60;93.70;;;;;;4998998;28;20210;-59
2024/04/04 01:32:43;;;;;;;9.90;7.10;;;11.60;93.80;;;;;;5020514;28;20284;-60
2024/04/04 01:35:09;;;;;;;15.47;6.87;;;11.50;94.00;;;;;;5035722;28;20207;-59
2024/04/04 01:37:37;;;;;;;8.63;6.10;;;11.50;94.10;;;;;;5037189;28;20214;-59
2024/04/04 01:40:04;;;;;;;10.87;7.43;;;11.50;94.10;;;;;;5041048;28;20224;-59
2024/04/04 01:42:31;;;;;;;12.17;7.47;;;11.40;94.10;;;;;;5044034;28;20253;-60
2024/04/04 01:44:58;;;;;;;11.53;7.17;;;11.40;94.20;;;;;;5017166;28;20237;-59
2024/04/04 01:47:25;;;;;;;12.77;7.40;;;11.40;94.30;;;;;;5020598;28;20304;-59
2024/04/04 01:49:51;;;;;;;9.87;6.53;;;11.40;94.40;;;;;;5044208;28;20211;-59
2024/04/04 01:52:17;;;;;;;10.97;6.37;;;11.40;94.40;;;;;;5037076;28;20206;-59
2024/04/04 01:54:44;;;;;;;11.27;7.47;;;11.40;94.30;;;;;;5034004;28;20207;-59
2024/04/04 01:57:10;;;;;;;11.53;6.53;;;11.30;94.30;;;;;;5024899;28;20240;-59
2024/04/04 01:59:37;;;;;;;13.57;8.13;;;11.40;94.30;;;;;;5020902;28;20201;-59
2024/04/04 02:02:04;;;;;;;13.00;7.67;;;11.30;94.40;;;;;;5005385;28;20225;-59
2024/04/04 02:04:31;;;;;;;14.13;7.47;;;11.30;94.40;;;;;;5039638;28;20195;-59
2024/04/04 02:06:59;;;;;;;8.77;7.33;;;11.20;94.40;;;;;;5014845;28;20262;-59
2024/04/04 02:09:25;;;;;;;11.53;7.33;;;11.20;94.50;;;;;;5023704;28;20213;-59
2024/04/04 02:11:52;;;;;;;7.53;6.73;;;11.10;94.50;;;;;;5036968;28;20213;-59
2024/04/04 02:14:20;;;;;;;11.60;6.70;;;11.10;94.60;;;;;;5020695;28;20600;-59
2024/04/04 02:16:48;;;;;;;11.73;7.10;;;11.10;94.70;;;;;;5020848;28;20222;-59
2024/04/04 02:19:15;;;;;;;11.67;7.90;;;11.10;94.70;;;;;;5006765;28;20200;-59
2024/04/04 02:21:42;;;;;;;11.93;7.40;;;11.10;94.70;;;;;;5030388;28;20205;-59
2024/04/04 02:24:11;;;;;;;12.37;7.80;;;11.10;94.80;;;;;;5000208;28;20211;-59
2024/04/04 02:26:39;;;;;;;11.40;7.63;;;11.10;94.80;;;;;;5014521;28;20594;-59
2024/04/04 02:29:05;;;;;;;10.27;7.00;;;11.10;94.80;;;;;;5037357;28;20207;-59
2024/04/04 02:31:32;;;;;;;8.60;7.20;;;11.10;94.90;;;;;;5022233;28;20218;-59
2024/04/04 02:33:58;;;;;;;9.87;7.17;;;11.10;94.90;;;;;;5004103;28;20206;-59
2024/04/04 02:36:28;;;;;;;8.90;7.47;;;11.10;94.90;;;;;;5038310;28;20195;-59
2024/04/04 02:38:55;;;;;;;12.63;7.47;;;11.10;94.80;;;;;;5013836;28;20225;-59
2024/04/04 02:41:22;;;;;;;16.17;8.23;;;11.10;94.80;;;;;;5013914;28;20245;-59
2024/04/04 02:43:48;;;;;;;11.60;8.50;;;11.10;94.80;;;;;;5034732;28;20226;-60
2024/04/04 02:46:14;;;;;;;13.40;8.10;;;11.10;94.80;;;;;;5035184;28;20194;-59
2024/04/04 02:48:43;;;;;;;13.07;8.33;;;11.10;94.80;;;;;;5037913;28;20205;-59
2024/04/04 02:51:11;;;;;;;10.57;8.13;;;11.10;94.80;;;;;;5016143;28;20195;-59
2024/04/04 02:53:37;;;;;;;13.30;8.17;;;11.10;94.90;;;;;;5035738;28;20238;-59
2024/04/04 02:56:04;;;;;;;12.83;8.70;;;11.00;94.90;;;;;;5032062;28;20558;-59
2024/04/04 02:58:31;;;;;;;14.57;8.83;;;11.00;94.90;;;;;;5004277;28;20208;-59
2024/04/04 03:01:04;;;;;;;14.33;9.07;;;11.00;95.00;;;;;;5019809;28;20258;-59
2024/04/04 03:03:31;;;;;;;11.70;8.53;;;11.00;95.10;;;;;;4997832;28;20270;-59
2024/04/04 03:05:58;;;;;;;11.00;9.03;;;11.00;95.20;;;;;;5034410;28;20211;-59
2024/04/04 03:08:25;;;;;;;10.60;8.93;;;11.00;95.30;;;;;;5036794;28;20222;-59
2024/04/04 03:10:52;;;;;;;11.83;8.60;;;11.00;95.30;;;;;;5016362;28;20217;-59
2024/04/04 03:13:19;;;;;;;14.47;9.03;;;11.10;95.40;;;;;;5021031;28;20279;-60
2024/04/04 03:15:56;;;;;;;9.73;7.83;;;11.10;95.40;;;;;;5028294;28;20262;-59
2024/04/04 03:18:23;;;;;;;11.97;9.23;;;11.00;95.30;;;;;;5009329;28;20194;-59
2024/04/04 03:20:50;;;;;;;10.43;7.67;;;11.00;95.20;;;;;;5039426;28;20221;-59
2024/04/04 03:23:17;;;;;;;13.80;9.10;;;11.00;95.20;;;;;;5014865;28;20226;-60
2024/04/04 03:25:44;;;;;;;15.20;8.70;;;11.00;95.20;;;;;;5032985;28;20256;-59
2024/04/04 03:28:10;;;;;;;11.60;8.90;;;10.90;95.30;;;;;;5024104;28;20202;-59
2024/04/04 03:30:36;;;;;;;11.93;8.07;;;10.90;95.30;;;;;;5014023;28;20632;-59
2024/04/04 03:33:03;;;;;;;12.07;8.67;;;11.00;95.40;;;;;;5036423;28;20257;-59
2024/04/04 03:35:29;;;;;;;13.43;7.63;;;11.00;95.40;;;;;;5020148;28;20317;-60
2024/04/04 03:37:55;;;;;;;13.33;8.97;;;11.00;95.40;;;;;;5018239;28;20741;-59
2024/04/04 03:40:22;;;;;;;12.17;8.97;;;11.00;95.30;;;;;;5022266;28;20202;-60
2024/04/04 03:42:49;;;;;;;11.13;8.93;;;10.90;95.20;;;;;;5019603;28;20361;-59
2024/04/04 03:45:17;;;;;;;13.83;8.47;;;10.90;95.20;;;;;;5016123;28;20256;-59
2024/04/04 03:47:44;;;;;;;13.37;8.23;;;10.90;95.30;;;;;;5001404;28;20260;-59
2024/04/04 03:50:10;;;;;;;12.03;8.13;;;10.90;95.30;;;;;;5033661;28;20655;-59
2024/04/04 03:52:37;;;;;;;12.20;9.23;;;10.80;95.30;;;;;;5014088;28;20210;-59
2024/04/04 03:55:04;;;;;;;14.43;9.50;;;10.80;95.30;;;;;;4999621;28;20315;-59
2024/04/04 03:57:33;;;;;;;13.53;9.67;;;10.80;95.30;;;;;;5017695;28;20645;-59
2024/04/04 04:00:01;;;;;;;14.20;9.53;;;10.80;95.30;;;;;;5018140;28;20234;-59
2024/04/04 04:02:27;;;;;;;15.63;9.47;;;10.70;95.30;;;;;;5034083;28;20253;-59
2024/04/04 04:04:54;;;;;;;15.27;9.37;;;10.70;95.40;;;;;;5021923;28;20203;-60
2024/04/04 04:07:21;;;;;;;16.97;10.77;;;10.70;95.70;;;;;;5038298;28;20207;-59
2024/04/04 04:09:47;;;;;;;15.10;10.23;;;10.70;95.60;;;;;;5036871;28;20196;-60
2024/04/04 04:12:14;;;;;;;19.53;10.30;;;10.70;95.70;;;;;;5022953;28;20238;-59
2024/04/04 04:14:41;;;;;;;12.07;10.10;;;10.70;95.80;;;;;;5017357;28;20296;-59
2024/04/04 04:17:08;;;;;;;13.97;10.50;;;10.70;95.80;;;;;;5005161;28;20260;-59
2024/04/04 04:19:35;;;;;;;18.47;10.60;;;10.80;95.80;;;;;;5029397;28;20268;-59
2024/04/04 04:22:01;;;;;;;18.73;10.97;;;10.80;95.80;;;;;;5034609;28;20224;-59
2024/04/04 04:24:28;;;;;;;18.07;11.53;;;10.80;95.80;;;;;;5035967;28;20194;-59
2024/04/04 04:26:54;;;;;;;21.13;11.60;;;10.80;95.90;;;;;;5014115;28;20210;-59
2024/04/04 04:29:21;;;;;;;19.80;13.23;;;10.90;95.90;;;;;;5034492;28;20206;-59
2024/04/04 04:31:47;;;;;;;17.93;12.40;;;10.90;96.00;;;;;;5018123;28;20206;-59
2024/04/04 04:34:14;;;;;;;13.93;11.83;;;10.90;96.00;;;;;;5018352;28;20201;-59
2024/04/04 04:36:59;;;;;;;17.77;10.67;;;10.90;96.00;;;;;;5018788;28;20209;-59
2024/04/04 04:39:26;;;;;;;17.07;10.67;;;10.90;96.00;;;;;;5038970;28;20194;-59
2024/04/04 04:41:54;;;;;;;15.47;10.53;;;11.00;96.00;;;;;;5015547;28;20226;-59
2024/04/04 04:44:20;;;;;;;19.10;9.90;;;11.00;96.00;;;;;;5022346;28;20232;-59
2024/04/04 04:46:47;;;;;;;15.20;9.63;;;11.00;95.90;;;;;;5019456;28;20600;-59
2024/04/04 04:49:14;;;;;;;13.10;9.40;;;11.00;95.90;;;;;;5037792;28;20209;-59
2024/04/04 04:51:40;;;;;;;13.10;9.40;;;11.00;95.80;;;;;;5039090;28;20214;-59
2024/04/04 04:54:06;;;;;;;15.13;9.20;;;11.00;95.80;;;;;;5020001;28;20236;-60
2024/04/04 04:56:35;;;;;;;15.43;9.90;;;11.10;95.80;;;;;;5031997;28;20263;-59
2024/04/04 04:59:01;;;;;;;13.70;9.00;;;11.00;95.70;;;;;;5022381;28;20246;-59
2024/04/04 05:01:28;;;;;;;14.77;8.73;;;11.00;95.70;;;;;;5024741;28;20225;-59
2024/04/04 05:03:55;;;;;;;12.10;8.87;;;11.00;95.70;;;;;;5021203;28;20218;-59
2024/04/04 05:06:21;;;;;;;11.37;7.97;;;11.00;95.60;;;;;;5033224;28;20215;-59
2024/04/04 05:08:49;;;;;;;14.37;9.23;;;11.00;95.60;;;;;;5022666;28;20701;-59
2024/04/04 05:11:16;;;;;;;9.93;7.67;;;11.00;95.60;;;;;;5024600;28;20401;-59
2024/04/04 05:13:43;;;;;;;13.10;8.17;;;11.00;95.60;;;;;;5006584;28;20224;-60
2024/04/04 05:16:11;;;;;;;9.40;7.40;;;11.00;95.50;;;;;;5021687;28;20272;-59
2024/04/04 05:18:38;;;;;;;11.10;7.83;;;11.00;95.40;;;;;;5033073;28;20228;-59
2024/04/04 05:21:06;;;;;;;10.00;7.63;;;10.90;95.20;;;;;;5021890;28;20207;-59
2024/04/04 05:23:34;;;;;;;10.83;8.47;;;10.90;95.20;;;;;;5023821;28;20311;-60
2024/04/04 05:26:03;;;;;;;17.27;8.13;;;10.90;95.20;;;;;;5011633;28;20667;-59
2024/04/04 05:28:31;;;;;;;14.03;8.70;;;10.90;95.30;;;;;;5007236;28;20248;-59
2024/04/04 05:31:00;;;;;;;14.57;7.87;;;10.90;95.40;;;;;;5005981;28;20603;-59
2024/04/04 05:33:26;;;;;;;11.07;8.30;;;10.90;95.40;;;;;;5040896;28;20219;-59
2024/04/04 05:35:55;;;;;;;11.50;8.33;;;11.00;95.50;;;;;;5019579;28;20293;-59
2024/04/04 05:38:22;;;;;;;10.30;8.33;;;11.00;95.50;;;;;;5019133;28;20529;-59
2024/04/04 05:40:48;;;;;;;14.00;8.03;;;11.20;95.50;;;;;;5032971;28;20213;-59
2024/04/04 05:43:15;;;;;;;13.67;7.40;;;11.20;95.50;;;;;;5019054;28;20247;-59
2024/04/04 05:45:42;;;;;;;10.17;7.20;;;11.40;95.40;;;;;;5036200;28;20214;-59
2024/04/04 05:48:09;;;;;;;8.93;7.87;;;11.50;95.40;;;;;;5036061;28;20631;-60
2024/04/04 05:50:35;;;;;;;10.27;8.47;;;11.60;95.30;;;;;;5034174;28;20203;-59
2024/04/04 05:53:02;;;;;;;9.20;7.43;;;11.70;95.40;;;;;;5036687;28;20300;-60
2024/04/04 05:55:29;;;;;;;10.47;7.27;;;11.80;95.40;;;;;;5040747;28;20233;-59
2024/04/04 05:57:56;;;;;;;12.67;7.43;;;12.00;95.30;;;;;;5019828;28;20238;-59
2024/04/04 06:00:23;;;;;;;10.43;7.00;;;12.20;95.00;;;;;;5030678;28;20246;-59
2024/04/04 06:02:49;;;;;;;7.53;6.40;;;12.50;94.70;;;;;;5042504;28;20655;-59
2024/04/04 06:05:16;;;;;;;10.37;7.20;;;12.70;94.40;;;;;;5039674;28;20198;-59
2024/04/04 06:07:42;;;;;;;12.03;7.37;;;12.90;93.90;;;;;;5018546;28;20652;-59
2024/04/04 06:10:09;;;;;;;12.37;8.10;;;13.10;93.80;;;;;;5035791;28;20233;-59
2024/04/04 06:12:35;;;;;;;9.80;7.33;;;13.40;93.80;;;;;;5035404;28;20211;-59
2024/04/04 06:15:02;;;;;;;20.00;9.07;;;13.80;93.40;;;;;;5036053;28;20218;-59
2024/04/04 06:17:28;;;;;;;10.17;7.07;;;14.20;92.80;;;;;;5035371;28;20777;-59
2024/04/04 06:19:56;;;;;;;12.13;8.03;;;14.70;92.10;;;;;;5041647;28;20635;-59
2024/04/04 06:22:23;;;;;;;12.33;8.30;;;15.20;91.30;;;;;;5036109;28;20223;-59
2024/04/04 06:24:50;;;;;;;9.50;7.03;;;15.60;90.70;;;;;;5021286;28;20196;-59
2024/04/04 06:27:16;;;;;;;14.13;7.03;;;15.80;90.20;;;;;;5032278;28;20202;-59
2024/04/04 06:29:42;;;;;;;13.67;8.00;;;16.00;90.10;;;;;;5035329;28;20261;-59
2024/04/04 06:32:08;;;;;;;11.60;6.67;;;16.10;89.90;;;;;;5031663;28;20203;-59
2024/04/04 06:34:35;;;;;;;8.30;5.60;;;16.10;90.00;;;;;;5033951;28;20195;-59
2024/04/04 06:37:01;;;;;;;10.17;6.77;;;16.10;90.00;;;;;;5033013;28;21069;-59
2024/04/04 06:39:28;;;;;;;13.17;6.43;;;16.00;90.10;;;;;;5022962;28;20205;-59
2024/04/04 06:41:55;;;;;;;7.03;5.80;;;16.00;90.30;;;;;;5041771;28;20263;-59
2024/04/04 06:44:21;;;;;;;7.97;6.23;;;15.90;90.50;;;;;;5042826;28;20191;-59
2024/04/04 06:46:48;;;;;;;8.30;6.30;;;15.90;90.60;;;;;;5035860;28;20199;-59
2024/04/04 06:49:15;;;;;;;21.20;9.17;;;16.00;90.60;;;;;;5019358;28;20209;-59
2024/04/04 06:51:41;;;;;;;41.93;13.23;;;16.00;90.70;;;;;;5041309;28;20207;-59
2024/04/04 06:54:07;;;;;;;12.27;7.37;;;16.10;90.70;;;;;;5031655;28;20525;-59
2024/04/04 06:56:33;;;;;;;9.37;6.57;;;16.10;90.50;;;;;;5017899;28;20568;-59
2024/04/04 06:59:00;;;;;;;11.73;7.50;;;16.20;90.00;;;;;;5034338;28;20212;-59
2024/04/04 07:01:29;;;;;;;10.83;6.23;;;16.20;89.50;;;;;;5036834;28;20236;-59
2024/04/04 07:03:56;;;;;;;13.27;6.83;;;16.20;89.40;;;;;;5032319;28;20223;-60
2024/04/04 07:06:24;;;;;;;13.97;7.23;;;16.20;89.10;;;;;;5035946;28;20256;-60
2024/04/04 07:08:50;;;;;;;10.03;6.33;;;16.20;88.90;;;;;;5035844;28;20541;-59
2024/04/04 07:11:17;;;;;;;10.87;6.17;;;16.20;88.50;;;;;;5035823;28;20210;-59
2024/04/04 07:13:43;;;;;;;15.83;6.20;;;16.30;88.80;;;;;;5036047;28;20555;-59
2024/04/04 07:16:10;;;;;;;10.27;7.27;;;16.30;87.70;;;;;;5032175;28;20567;-59
2024/04/04 07:18:37;;;;;;;9.37;6.50;;;16.40;87.50;;;;;;5026262;28;20578;-59
2024/04/04 07:21:05;;;;;;;11.07;6.73;;;16.40;87.70;;;;;;5035103;28;20212;-59
2024/04/04 07:23:35;;;;;;;9.20;6.80;;;16.50;87.70;;;;;;5022296;28;20313;-59
2024/04/04 07:26:02;;;;;;;14.43;6.80;;;16.60;87.70;;;;;;5016359;28;20808;-59
2024/04/04 07:28:29;;;;;;;14.90;5.87;;;16.60;87.30;;;;;;5018326;28;20223;-59
2024/04/04 07:30:56;;;;;;;11.83;5.97;;;16.70;86.90;;;;;;5016154;28;20259;-59
2024/04/04 07:33:23;;;;;;;12.63;6.30;;;16.80;86.70;;;;;;5025098;28;20228;-59
2024/04/04 07:35:50;;;;;;;10.37;6.40;;;16.80;86.30;;;;;;5035835;28;20292;-60
2024/04/04 07:38:16;;;;;;;14.87;7.23;;;16.90;86.60;;;;;;5023925;28;20202;-59
2024/04/04 07:40:42;;;;;;;9.20;6.80;;;17.00;86.90;;;;;;5036744;28;20702;-59
2024/04/04 07:43:09;;;;;;;12.67;6.83;;;17.00;87.40;;;;;;5041230;28;20212;-59
2024/04/04 07:45:42;;;;;;;11.30;6.17;;;17.10;87.80;;;;;;5038226;28;20280;-59
2024/04/04 07:48:14;;;;;;;8.87;7.17;;;17.20;87.50;;;;;;5037372;28;20204;-59
2024/04/04 07:50:41;;;;;;;8.30;6.23;;;17.30;86.90;;;;;;5032518;28;20202;-59
2024/04/04 07:53:08;;;;;;;11.13;7.43;;;17.30;86.80;;;;;;5034973;28;20210;-59
2024/04/04 07:55:36;;;;;;;12.40;7.17;;;17.40;87.10;;;;;;5039296;28;20209;-59
2024/04/04 07:58:03;;;;;;;8.57;6.00;;;17.40;87.80;;;;;;5033914;28;20238;-59
2024/04/04 08:00:29;;;;;;;7.73;5.63;;;17.50;87.80;;;;;;5023204;28;20315;-59
2024/04/04 08:02:56;;;;;;;7.80;4.77;;;17.50;87.00;;;;;;5034865;28;20634;-59
2024/04/04 08:05:22;;;;;;;8.23;5.30;;;17.60;87.30;;;;;;5017952;28;20272;-59
2024/04/04 08:07:49;;;;;;;10.93;5.50;;;17.70;87.20;;;;;;5031850;28;20206;-59
2024/04/04 08:10:17;;;;;;;7.37;4.80;;;17.80;86.60;;;;;;5004971;28;20205;-59
2024/04/04 08:12:45;;;;;;;11.43;5.17;;;17.90;85.80;;;;;;5035237;28;20292;-59
2024/04/04 08:15:14;;;;;;;10.07;5.13;;;17.90;85.50;;;;;;5019304;28;20229;-59
2024/04/04 08:17:41;;;;;;;10.23;5.97;;;18.00;85.00;;;;;;5022587;28;20222;-59
2024/04/04 08:20:14;;;;;;;10.30;4.93;;;18.00;84.20;;;;;;5035548;28;20209;-59
2024/04/04 08:22:42;;;;;;;12.63;5.30;;;18.10;83.80;;;;;;5038109;28;20213;-59
2024/04/04 08:25:08;;;;;;;11.83;5.50;;;18.20;84.00;;;;;;5033096;28;20518;-59
2024/04/04 08:27:34;;;;;;;8.00;5.20;;;18.30;83.30;;;;;;5034450;28;20198;-58
2024/04/04 08:30:00;;;;;;;11.53;5.33;;;18.40;83.30;;;;;;5037859;28;20513;-59
2024/04/04 08:32:28;;;;;;;8.30;5.50;;;18.50;83.40;;;;;;5026056;28;20199;-59
2024/04/04 08:34:54;;;;;;;12.00;5.67;;;18.60;82.80;;;;;;5019764;28;20221;-59
2024/04/04 08:37:21;;;;;;;10.87;6.20;;;18.70;82.40;;;;;;5023539;28;20200;-59
2024/04/04 08:39:48;;;;;;;9.93;5.90;;;18.80;81.60;;;;;;5040098;28;20261;-58
2024/04/04 08:42:15;;;;;;;14.57;7.80;;;19.00;81.80;;;;;;5038091;28;20697;-59
2024/04/04 08:44:42;;;;;;;11.07;7.53;;;19.10;82.20;;;;;;5030391;28;20186;-59
2024/04/04 08:47:10;;;;;;;13.47;7.00;;;19.20;81.90;;;;;;5005915;28;20237;-59
2024/04/04 08:49:38;;;;;;;12.70;7.83;;;19.30;82.20;;;;;;5030387;28;20264;-59
2024/04/04 08:52:05;;;;;;;9.83;4.53;;;19.40;81.90;;;;;;5024339;28;20203;-59
2024/04/04 08:54:32;;;;;;;10.60;5.80;;;19.50;81.60;;;;;;5035397;28;20207;-59
2024/04/04 08:57:01;;;;;;;10.13;6.00;;;19.50;80.20;;;;;;5038987;28;20216;-59
2024/04/04 08:59:27;;;;;;;11.87;6.97;;;19.50;79.70;;;;;;5024042;28;20517;-59
2024/04/04 09:01:53;;;;;;;12.17;6.13;;;19.60;79.90;;;;;;5029187;28;20246;-59
2024/04/04 09:04:27;;;;;;;11.40;5.33;;;19.70;79.50;;;;;;5039212;28;20731;-59
2024/04/04 09:06:53;;;;;;;10.97;6.00;;;19.70;79.00;;;;;;5037117;28;20598;-59
2024/04/04 09:09:20;;;;;;;9.47;4.27;;;19.80;79.30;;;;;;5028581;28;20218;-59
2024/04/04 09:11:47;;;;;;;9.33;4.60;;;19.90;77.70;;;;;;5035358;28;20213;-59
2024/04/04 09:14:15;;;;;;;10.43;5.77;;;19.90;77.30;;;;;;5036671;28;20207;-59
2024/04/04 09:16:46;;;;;;;7.30;4.83;;;19.90;78.10;;;;;;5040281;28;20234;-59
2024/04/04 09:19:18;;;;;;;5.63;4.00;;;20.00;78.40;;;;;;5025138;28;20198;-59
2024/04/04 09:21:45;;;;;;;10.87;5.10;;;20.10;78.30;;;;;;5006656;28;20214;-59
2024/04/04 09:24:14;;;;;;;10.13;5.80;;;20.20;77.70;;;;;;5041883;28;20210;-59
2024/04/04 09:26:43;;;;;;;11.57;5.93;;;20.20;78.10;;;;;;5010032;28;20195;-59
2024/04/04 09:29:10;;;;;;;12.20;5.03;;;20.30;78.40;;;;;;5019439;28;20196;-60
2024/04/04 09:31:39;;;;;;;12.83;5.63;;;20.30;77.30;;;;;;5019214;28;20199;-59
2024/04/04 09:34:06;;;;;;;12.70;5.33;;;20.40;76.80;;;;;;5012916;28;20198;-59
2024/04/04 09:36:39;;;;;;;9.10;5.60;;;20.50;75.90;;;;;;5040898;28;20537;-59
2024/04/04 09:39:12;;;;;;;10.83;5.80;;;20.40;76.50;;;;;;5024830;28;20264;-60
2024/04/04 09:41:39;;;;;;;11.43;5.87;;;20.40;76.70;;;;;;4990146;28;20722;-59
2024/04/04 09:44:06;;;;;;;9.10;4.57;;;20.50;76.90;;;;;;5019493;28;20280;-60
2024/04/04 09:46:38;;;;;;;10.87;5.73;;;20.60;76.30;;;;;;5022137;28;20203;-60
2024/04/04 09:49:06;;;;;;;9.17;5.93;;;20.80;76.00;;;;;;5037443;28;20542;-60
2024/04/04 09:51:33;;;;;;;11.57;6.93;;;20.90;76.20;;;;;;5020767;28;20261;-60
2024/04/04 09:54:00;;;;;;;10.27;6.20;;;21.10;75.40;;;;;;5033404;28;20281;-59
2024/04/04 09:56:27;;;;;;;9.80;6.77;;;21.10;74.80;;;;;;5039024;28;20214;-59
2024/04/04 09:58:54;;;;;;;10.43;5.83;;;21.20;74.70;;;;;;5017532;28;20653;-60
2024/04/04 10:01:25;;;;;;;9.90;4.60;;;21.20;74.50;;;;;;5037708;28;20231;-59
2024/04/04 10:03:52;;;;;;;15.17;4.87;;;21.30;74.10;;;;;;5005499;28;20231;-60
2024/04/04 10:06:36;;;;;;;12.03;4.37;;;21.30;73.30;;;;;;5006288;28;20706;-60
2024/04/04 10:09:21;;;;;;;9.10;3.67;;;21.40;74.00;;;;;;5039306;28;20199;-60
2024/04/04 10:11:49;;;;;;;8.87;2.73;;;21.50;73.10;;;;;;5033084;28;20200;-58
2024/04/04 10:14:21;;;;;;;7.07;2.90;;;21.70;72.90;;;;;;5009000;28;20213;-59
2024/04/04 10:16:55;;;;;;;7.30;3.20;;;21.80;71.50;;;;;;5022345;28;20226;-59
2024/04/04 10:19:26;;;;;;;6.93;3.47;;;21.90;71.30;;;;;;5038691;28;20206;-59
2024/04/04 10:21:53;;;;;;;5.77;2.50;;;21.90;70.20;;;;;;5039506;28;20553;-59
2024/04/04 10:24:22;;;;;;;10.00;3.77;;;22.00;70.30;;;;;;5035371;28;20249;-59
2024/04/04 10:26:59;;;;;;;7.07;2.30;;;22.10;70.00;;;;;;5019291;28;20191;-59
2024/04/04 10:29:35;;;;;;;8.27;2.63;;;22.20;69.20;;;;;;5002035;28;20289;-60
2024/04/04 10:32:03;;;;;;;8.07;2.67;;;22.30;68.90;;;;;;5025569;28;20199;-60
2024/04/04 10:34:30;;;;;;;7.53;3.60;;;22.40;68.20;;;;;;5011495;28;20528;-60
2024/04/04 10:36:57;;;;;;;6.73;3.13;;;22.50;69.20;;;;;;5021559;28;20200;-59
2024/04/04 10:39:23;;;;;;;9.80;3.83;;;22.70;68.50;;;;;;5020384;28;20211;-59
2024/04/04 10:41:56;;;;;;;9.90;4.23;;;22.70;67.70;;;;;;4988278;28;20214;-59
2024/04/04 10:44:25;;;;;;;3.70;2.50;;;22.70;69.20;;;;;;5018863;28;20563;-59
2024/04/04 10:46:54;;;;;;;8.17;3.00;;;22.80;68.40;;;;;;5011707;28;20489;-60
2024/04/04 10:49:27;;;;;;;5.73;2.80;;;22.70;67.10;;;;;;4997343;28;20238;-60
2024/04/04 10:51:57;;;;;;;7.07;3.23;;;22.70;67.80;;;;;;5035791;28;20199;-60
2024/04/04 10:54:26;;;;;;;6.10;3.20;;;22.80;68.20;;;;;;5003038;28;20349;-61
2024/04/04 10:56:53;;;;;;;3.57;1.83;;;23.00;68.30;;;;;;5010186;28;20255;-60
2024/04/04 10:59:20;;;;;;;4.23;2.50;;;23.10;66.90;;;;;;5004596;28;20749;-60
2024/04/04 11:01:48;;;;;;;5.23;3.17;;;23.20;64.70;;;;;;5037422;28;20254;-60
2024/04/04 11:04:18;;;;;;;7.03;2.80;;;23.20;65.50;;;;;;5019922;28;20284;-60
2024/04/04 11:06:47;;;;;;;8.17;2.20;;;23.20;66.20;;;;;;5034126;28;20191;-60
2024/04/04 11:09:20;;;;;;;3.43;1.93;;;23.30;65.80;;;;;;5028564;28;20213;-60
2024/04/04 11:11:53;;;;;;;6.80;2.23;;;23.30;66.20;;;;;;5038232;28;20206;-60
2024/04/04 11:14:25;;;;;;;6.13;1.77;;;23.40;66.10;;;;;;5041743;28;20194;-60
2024/04/04 11:16:56;;;;;;;3.80;1.80;;;23.50;64.90;;;;;;5034796;28;20862;-60
2024/04/04 11:19:23;;;;;;;8.17;2.50;;;23.50;63.50;;;;;;5022274;28;20215;-60
2024/04/04 11:21:51;;;;;;;5.50;1.87;;;23.40;63.50;;;;;;5021590;28;20195;-60
2024/04/04 11:24:18;;;;;;;4.90;2.30;;;23.30;64.80;;;;;;5037971;28;20218;-60
2024/04/04 11:26:44;;;;;;;9.50;1.90;;;23.30;65.50;;;;;;5040750;28;20214;-60
2024/04/04 11:29:11;;;;;;;8.13;2.10;;;23.30;65.20;;;;;;5019671;28;20253;-60
2024/04/04 11:31:38;;;;;;;6.07;2.17;;;23.30;64.10;;;;;;5029885;28;20218;-60
2024/04/04 11:34:07;;;;;;;5.97;2.47;;;23.10;64.60;;;;;;5007523;28;20656;-60
2024/04/04 11:36:34;;;;;;;8.47;2.33;;;23.00;65.60;;;;;;5035555;28;20273;-60
2024/04/04 11:39:00;;;;;;;7.57;2.20;;;22.80;65.60;;;;;;5004789;28;20576;-60
2024/04/04 11:41:27;;;;;;;7.33;2.00;;;22.70;65.80;;;;;;5035118;28;20594;-60
2024/04/04 11:43:54;;;;;;;5.40;1.53;;;22.60;66.20;;;;;;5019189;28;20567;-59
2024/04/04 11:46:21;;;;;;;6.87;1.40;;;22.60;66.60;;;;;;5031001;28;20195;-60
2024/04/04 11:48:47;;;;;;;6.53;1.93;;;22.70;66.80;;;;;;5027881;28;20612;-60
2024/04/04 11:51:14;;;;;;;5.17;2.00;;;22.70;66.10;;;;;;5013903;28;20206;-61
2024/04/04 11:53:43;;;;;;;6.43;2.20;;;22.80;65.30;;;;;;5025380;28;20207;-59
2024/04/04 11:56:10;;;;;;;5.90;2.43;;;22.80;64.70;;;;;;5020659;28;20286;-59
2024/04/04 11:58:38;;;;;;;5.63;1.87;;;22.80;65.10;;;;;;5019068;28;20260;-59
2024/04/04 12:01:05;;;;;;;4.17;1.60;;;22.80;65.50;;;;;;5041301;28;20239;-59
2024/04/04 12:03:31;;;;;;;5.27;1.90;;;22.80;64.80;;;;;;5033791;28;20219;-58
2024/04/04 12:05:57;;;;;;;8.03;2.47;;;22.90;65.10;;;;;;5027762;28;20253;-59
2024/04/04 12:08:24;;;;;;;6.03;1.93;;;22.90;65.00;;;;;;5034154;28;20229;-59
2024/04/04 12:10:52;;;;;;;7.80;1.90;;;23.00;64.50;;;;;;5021043;28;20211;-59
2024/04/04 12:13:20;;;;;;;6.23;2.00;;;23.20;64.50;;;;;;5038743;28;20209;-59
2024/04/04 12:15:50;;;;;;;7.37;2.13;;;23.30;64.30;;;;;;5024799;28;20267;-59
2024/04/04 12:21:03;;;;;;;11.73;2.10;;;23.50;63.80;;;;;;5024172;28;20528;-60
2024/04/04 12:23:30;;;;;;;5.40;1.80;;;23.60;62.90;;;;;;5034954;28;20671;-59
2024/04/04 12:25:57;;;;;;;5.57;1.23;;;23.60;61.50;;;;;;5015396;28;20200;-59
2024/04/04 12:28:23;;;;;;;6.60;1.83;;;23.70;61.80;;;;;;5018767;28;20214;-59
2024/04/04 12:30:50;;;;;;;5.27;1.67;;;23.70;62.00;;;;;;5034457;28;20558;-59
2024/04/04 12:33:17;;;;;;;7.23;2.43;;;23.70;62.40;;;;;;5018197;28;20906;-59
2024/04/04 12:35:44;;;;;;;7.33;1.70;;;23.80;61.80;;;;;;5039946;28;20239;-59
2024/04/04 12:38:11;;;;;;;3.40;1.27;;;23.80;60.90;;;;;;5004517;28;20577;-59
2024/04/04 12:40:39;;;;;;;6.00;2.07;;;23.80;59.80;;;;;;5033369;28;20567;-59
2024/04/04 12:43:06;;;;;;;4.57;1.70;;;23.70;60.40;;;;;;5036477;28;20219;-59
2024/04/04 12:45:33;;;;;;;7.30;1.83;;;23.70;61.40;;;;;;5037454;28;20204;-59